sensor_id;sensor_type;location;lat;lon;timestamp;P1;durP1;ratioP1;P2;durP2;ratioP2
39050;SDS011;24805;55.852;37.644;2023-07-24T00:02:13;5.88;;;3.50;;
39050;SDS011;24805;55.852;37.644;2023-07-24T00:07:16;4.00;;;3.10;;
39050;SDS011;24805;55.852;37.644;2023-07-24T00:12:18;4.22;;;2.90;;
39050;SDS011;24805;55.852;37.644;2023-07-24T00:17:20;4.22;;;3.22;;
39050;SDS011;24805;55.852;37.644;2023-07-24T00:22:23;5.00;;;3.20;;
39050;SDS011;24805;55.852;37.644;2023-07-24T00:27:25;5.57;;;3.17;;
39050;SDS011;24805;55.852;37.644;2023-07-24T00:32:27;5.47;;;3.25;;
39050;SDS011;24805;55.852;37.644;2023-07-24T00:37:29;6.68;;;3.33;;
39050;SDS011;24805;55.852;37.644;2023-07-24T00:42:32;3.70;;;3.38;;
39050;SDS011;24805;55.852;37.644;2023-07-24T00:47:34;9.77;;;3.72;;
39050;SDS011;24805;55.852;37.644;2023-07-24T00:52:36;5.22;;;3.55;;
39050;SDS011;24805;55.852;37.644;2023-07-24T00:57:39;3.95;;;3.10;;
39050;SDS011;24805;55.852;37.644;2023-07-24T01:02:42;5.15;;;3.40;;
39050;SDS011;24805;55.852;37.644;2023-07-24T01:07:45;4.85;;;3.00;;
39050;SDS011;24805;55.852;37.644;2023-07-24T01:12:58;6.00;;;3.40;;
39050;SDS011;24805;55.852;37.644;2023-07-24T01:28:53;3.55;;;3.08;;
39050;SDS011;24805;55.852;37.644;2023-07-24T01:33:55;6.85;;;4.10;;
39050;SDS011;24805;55.852;37.644;2023-07-24T01:38:58;7.60;;;4.13;;
39050;SDS011;24805;55.852;37.644;2023-07-24T01:44:02;5.30;;;2.80;;
39050;SDS011;24805;55.852;37.644;2023-07-24T01:49:04;4.40;;;3.38;;
39050;SDS011;24805;55.852;37.644;2023-07-24T01:54:06;3.95;;;3.10;;
39050;SDS011;24805;55.852;37.644;2023-07-24T01:59:09;3.63;;;3.00;;
39050;SDS011;24805;55.852;37.644;2023-07-24T02:04:11;6.13;;;3.15;;
39050;SDS011;24805;55.852;37.644;2023-07-24T02:09:14;4.72;;;3.20;;
39050;SDS011;24805;55.852;37.644;2023-07-24T02:14:17;6.95;;;3.47;;
39050;SDS011;24805;55.852;37.644;2023-07-24T02:19:20;3.85;;;2.90;;
39050;SDS011;24805;55.852;37.644;2023-07-24T02:24:22;3.67;;;2.78;;
39050;SDS011;24805;55.852;37.644;2023-07-24T02:29:24;6.85;;;3.22;;
39050;SDS011;24805;55.852;37.644;2023-07-24T02:34:27;4.70;;;3.42;;
39050;SDS011;24805;55.852;37.644;2023-07-24T02:39:30;4.88;;;2.85;;
39050;SDS011;24805;55.852;37.644;2023-07-24T02:44:33;5.35;;;2.78;;
39050;SDS011;24805;55.852;37.644;2023-07-24T02:49:36;5.05;;;3.03;;
39050;SDS011;24805;55.852;37.644;2023-07-24T02:54:40;6.50;;;2.50;;
39050;SDS011;24805;55.852;37.644;2023-07-24T02:59:42;4.63;;;2.70;;
39050;SDS011;24805;55.852;37.644;2023-07-24T03:04:44;4.35;;;2.95;;
39050;SDS011;24805;55.852;37.644;2023-07-24T03:09:46;5.38;;;2.40;;
39050;SDS011;24805;55.852;37.644;2023-07-24T03:14:49;5.22;;;2.20;;
39050;SDS011;24805;55.852;37.644;2023-07-24T03:19:53;5.50;;;2.50;;
39050;SDS011;24805;55.852;37.644;2023-07-24T03:24:56;3.50;;;2.22;;
39050;SDS011;24805;55.852;37.644;2023-07-24T03:29:58;4.25;;;1.83;;
39050;SDS011;24805;55.852;37.644;2023-07-24T03:35:00;5.35;;;2.35;;
39050;SDS011;24805;55.852;37.644;2023-07-24T03:40:04;2.92;;;1.90;;
39050;SDS011;24805;55.852;37.644;2023-07-24T03:45:06;3.10;;;2.00;;
39050;SDS011;24805;55.852;37.644;2023-07-24T03:50:10;2.88;;;1.90;;
39050;SDS011;24805;55.852;37.644;2023-07-24T03:55:12;3.03;;;2.25;;
39050;SDS011;24805;55.852;37.644;2023-07-24T04:00:14;8.40;;;2.58;;
39050;SDS011;24805;55.852;37.644;2023-07-24T04:05:17;2.83;;;2.15;;
39050;SDS011;24805;55.852;37.644;2023-07-24T04:10:19;4.65;;;2.25;;
39050;SDS011;24805;55.852;37.644;2023-07-24T04:15:21;2.30;;;1.90;;
39050;SDS011;24805;55.852;37.644;2023-07-24T04:20:23;4.22;;;2.08;;
39050;SDS011;24805;55.852;37.644;2023-07-24T04:25:26;3.17;;;2.05;;
39050;SDS011;24805;55.852;37.644;2023-07-24T04:30:28;4.25;;;1.95;;
39050;SDS011;24805;55.852;37.644;2023-07-24T04:35:30;2.78;;;1.83;;
39050;SDS011;24805;55.852;37.644;2023-07-24T04:40:33;5.25;;;2.00;;
39050;SDS011;24805;55.852;37.644;2023-07-24T04:45:35;7.20;;;2.10;;
39050;SDS011;24805;55.852;37.644;2023-07-24T04:50:37;6.45;;;2.28;;
39050;SDS011;24805;55.852;37.644;2023-07-24T04:55:39;7.35;;;1.95;;
39050;SDS011;24805;55.852;37.644;2023-07-24T05:00:41;6.40;;;2.28;;
39050;SDS011;24805;55.852;37.644;2023-07-24T05:05:47;3.75;;;2.30;;
39050;SDS011;24805;55.852;37.644;2023-07-24T05:10:54;3.30;;;1.77;;
39050;SDS011;24805;55.852;37.644;2023-07-24T05:15:59;3.28;;;1.98;;
39050;SDS011;24805;55.852;37.644;2023-07-24T05:21:01;4.75;;;2.10;;
39050;SDS011;24805;55.852;37.644;2023-07-24T05:26:04;5.20;;;2.40;;
39050;SDS011;24805;55.852;37.644;2023-07-24T05:31:06;3.40;;;2.13;;
39050;SDS011;24805;55.852;37.644;2023-07-24T05:36:09;4.95;;;2.03;;
39050;SDS011;24805;55.852;37.644;2023-07-24T05:41:11;4.93;;;1.90;;
39050;SDS011;24805;55.852;37.644;2023-07-24T05:46:14;3.05;;;1.80;;
39050;SDS011;24805;55.852;37.644;2023-07-24T05:51:16;7.72;;;1.83;;
39050;SDS011;24805;55.852;37.644;2023-07-24T05:56:18;2.78;;;1.92;;
39050;SDS011;24805;55.852;37.644;2023-07-24T06:01:20;5.32;;;1.63;;
39050;SDS011;24805;55.852;37.644;2023-07-24T06:06:23;3.63;;;1.88;;
39050;SDS011;24805;55.852;37.644;2023-07-24T06:11:25;4.85;;;1.42;;
39050;SDS011;24805;55.852;37.644;2023-07-24T06:16:28;5.60;;;1.60;;
39050;SDS011;24805;55.852;37.644;2023-07-24T06:21:31;2.40;;;1.50;;
39050;SDS011;24805;55.852;37.644;2023-07-24T06:26:33;3.40;;;1.83;;
39050;SDS011;24805;55.852;37.644;2023-07-24T06:31:35;2.47;;;1.35;;
39050;SDS011;24805;55.852;37.644;2023-07-24T06:36:38;3.58;;;1.88;;
39050;SDS011;24805;55.852;37.644;2023-07-24T06:41:40;1.80;;;1.20;;
39050;SDS011;24805;55.852;37.644;2023-07-24T06:46:42;3.40;;;1.20;;
39050;SDS011;24805;55.852;37.644;2023-07-24T06:51:45;2.50;;;1.02;;
39050;SDS011;24805;55.852;37.644;2023-07-24T06:56:47;3.08;;;1.33;;
39050;SDS011;24805;55.852;37.644;2023-07-24T07:01:49;1.50;;;1.00;;
39050;SDS011;24805;55.852;37.644;2023-07-24T07:06:51;2.88;;;1.45;;
39050;SDS011;24805;55.852;37.644;2023-07-24T07:11:53;2.47;;;1.15;;
39050;SDS011;24805;55.852;37.644;2023-07-24T07:16:56;3.83;;;1.50;;
39050;SDS011;24805;55.852;37.644;2023-07-24T07:21:58;4.38;;;1.20;;
39050;SDS011;24805;55.852;37.644;2023-07-24T07:27:00;2.72;;;1.00;;
39050;SDS011;24805;55.852;37.644;2023-07-24T07:32:02;1.88;;;0.70;;
39050;SDS011;24805;55.852;37.644;2023-07-24T07:37:05;1.95;;;0.95;;
39050;SDS011;24805;55.852;37.644;2023-07-24T07:42:08;3.38;;;0.95;;
39050;SDS011;24805;55.852;37.644;2023-07-24T07:47:19;3.27;;;0.50;;
39050;SDS011;24805;55.852;37.644;2023-07-24T07:52:21;0.63;;;0.40;;
39050;SDS011;24805;55.852;37.644;2023-07-24T07:57:24;1.27;;;0.80;;
39050;SDS011;24805;55.852;37.644;2023-07-24T08:02:26;3.35;;;0.90;;
39050;SDS011;24805;55.852;37.644;2023-07-24T08:07:30;0.82;;;0.40;;
39050;SDS011;24805;55.852;37.644;2023-07-24T08:12:32;3.00;;;0.95;;
39050;SDS011;24805;55.852;37.644;2023-07-24T08:17:35;3.17;;;1.00;;
39050;SDS011;24805;55.852;37.644;2023-07-24T08:22:37;2.47;;;0.90;;
39050;SDS011;24805;55.852;37.644;2023-07-24T08:27:39;3.47;;;1.00;;
39050;SDS011;24805;55.852;37.644;2023-07-24T08:33:02;2.60;;;1.40;;
39050;SDS011;24805;55.852;37.644;2023-07-24T08:38:04;2.13;;;0.90;;
39050;SDS011;24805;55.852;37.644;2023-07-24T08:43:06;3.72;;;1.95;;
39050;SDS011;24805;55.852;37.644;2023-07-24T08:48:09;2.80;;;1.58;;
39050;SDS011;24805;55.852;37.644;2023-07-24T08:53:12;4.80;;;1.33;;
39050;SDS011;24805;55.852;37.644;2023-07-24T08:58:15;2.58;;;1.23;;
39050;SDS011;24805;55.852;37.644;2023-07-24T09:03:18;4.70;;;2.17;;
39050;SDS011;24805;55.852;37.644;2023-07-24T09:08:55;4.95;;;1.77;;
39050;SDS011;24805;55.852;37.644;2023-07-24T09:13:50;4.78;;;1.90;;
39050;SDS011;24805;55.852;37.644;2023-07-24T09:18:56;5.25;;;1.90;;
39050;SDS011;24805;55.852;37.644;2023-07-24T09:24:14;2.85;;;1.55;;
39050;SDS011;24805;55.852;37.644;2023-07-24T09:29:17;5.93;;;1.90;;
39050;SDS011;24805;55.852;37.644;2023-07-24T09:34:19;7.55;;;2.67;;
39050;SDS011;24805;55.852;37.644;2023-07-24T09:39:27;6.15;;;2.78;;
39050;SDS011;24805;55.852;37.644;2023-07-24T09:44:31;6.47;;;2.70;;
39050;SDS011;24805;55.852;37.644;2023-07-24T09:49:34;5.88;;;3.35;;
39050;SDS011;24805;55.852;37.644;2023-07-24T09:54:38;5.93;;;3.13;;
39050;SDS011;24805;55.852;37.644;2023-07-24T09:59:50;6.20;;;2.88;;
39050;SDS011;24805;55.852;37.644;2023-07-24T10:04:53;4.75;;;3.03;;
39050;SDS011;24805;55.852;37.644;2023-07-24T10:09:57;4.40;;;2.42;;
39050;SDS011;24805;55.852;37.644;2023-07-24T10:15:00;4.88;;;2.80;;
39050;SDS011;24805;55.852;37.644;2023-07-24T10:20:05;6.47;;;2.83;;
39050;SDS011;24805;55.852;37.644;2023-07-24T10:25:09;6.32;;;2.00;;
39050;SDS011;24805;55.852;37.644;2023-07-24T10:30:12;3.40;;;2.22;;
39050;SDS011;24805;55.852;37.644;2023-07-24T10:35:42;5.03;;;2.20;;
39050;SDS011;24805;55.852;37.644;2023-07-24T10:40:47;5.05;;;2.30;;
39050;SDS011;24805;55.852;37.644;2023-07-24T10:45:54;5.65;;;2.70;;
39050;SDS011;24805;55.852;37.644;2023-07-24T10:50:57;5.43;;;2.75;;
39050;SDS011;24805;55.852;37.644;2023-07-24T10:55:59;4.57;;;2.58;;
39050;SDS011;24805;55.852;37.644;2023-07-24T11:01:05;6.40;;;2.67;;
39050;SDS011;24805;55.852;37.644;2023-07-24T11:06:19;6.20;;;2.80;;
39050;SDS011;24805;55.852;37.644;2023-07-24T11:11:30;4.97;;;2.88;;
39050;SDS011;24805;55.852;37.644;2023-07-24T11:16:35;5.00;;;3.00;;
39050;SDS011;24805;55.852;37.644;2023-07-24T11:21:37;5.43;;;3.63;;
39050;SDS011;24805;55.852;37.644;2023-07-24T11:26:39;5.82;;;3.58;;
39050;SDS011;24805;55.852;37.644;2023-07-24T11:31:43;4.80;;;3.55;;
39050;SDS011;24805;55.852;37.644;2023-07-24T11:36:46;6.38;;;4.10;;
39050;SDS011;24805;55.852;37.644;2023-07-24T11:41:48;5.18;;;3.83;;
39050;SDS011;24805;55.852;37.644;2023-07-24T11:46:50;7.13;;;3.97;;
39050;SDS011;24805;55.852;37.644;2023-07-24T11:52:00;7.47;;;4.03;;
39050;SDS011;24805;55.852;37.644;2023-07-24T11:57:15;9.18;;;4.18;;
39050;SDS011;24805;55.852;37.644;2023-07-24T12:02:18;5.40;;;4.40;;
39050;SDS011;24805;55.852;37.644;2023-07-24T12:07:20;8.45;;;4.30;;
39050;SDS011;24805;55.852;37.644;2023-07-24T12:12:23;6.55;;;4.95;;
39050;SDS011;24805;55.852;37.644;2023-07-24T12:17:25;9.95;;;4.30;;
39050;SDS011;24805;55.852;37.644;2023-07-24T12:22:27;7.22;;;4.93;;
39050;SDS011;24805;55.852;37.644;2023-07-24T12:27:32;6.55;;;4.28;;
39050;SDS011;24805;55.852;37.644;2023-07-24T12:32:34;7.95;;;4.50;;
39050;SDS011;24805;55.852;37.644;2023-07-24T12:37:37;8.18;;;4.85;;
39050;SDS011;24805;55.852;37.644;2023-07-24T12:42:41;7.20;;;4.32;;
39050;SDS011;24805;55.852;37.644;2023-07-24T12:47:43;5.45;;;4.35;;
39050;SDS011;24805;55.852;37.644;2023-07-24T12:52:45;5.18;;;3.70;;
39050;SDS011;24805;55.852;37.644;2023-07-24T12:57:48;8.00;;;3.85;;
39050;SDS011;24805;55.852;37.644;2023-07-24T13:02:50;5.75;;;3.85;;
39050;SDS011;24805;55.852;37.644;2023-07-24T13:07:53;6.38;;;3.80;;
39050;SDS011;24805;55.852;37.644;2023-07-24T13:12:55;6.47;;;3.88;;
39050;SDS011;24805;55.852;37.644;2023-07-24T13:17:57;7.15;;;4.35;;
39050;SDS011;24805;55.852;37.644;2023-07-24T13:23:11;6.63;;;4.03;;
39050;SDS011;24805;55.852;37.644;2023-07-24T13:28:13;9.18;;;4.45;;
39050;SDS011;24805;55.852;37.644;2023-07-24T13:33:16;6.30;;;4.43;;
39050;SDS011;24805;55.852;37.644;2023-07-24T13:38:18;9.02;;;4.47;;
39050;SDS011;24805;55.852;37.644;2023-07-24T13:43:23;5.72;;;4.05;;
39050;SDS011;24805;55.852;37.644;2023-07-24T13:48:27;5.43;;;3.97;;
39050;SDS011;24805;55.852;37.644;2023-07-24T13:53:29;5.45;;;3.67;;
39050;SDS011;24805;55.852;37.644;2023-07-24T13:58:31;6.68;;;4.05;;
39050;SDS011;24805;55.852;37.644;2023-07-24T14:03:33;4.70;;;3.55;;
39050;SDS011;24805;55.852;37.644;2023-07-24T14:08:36;4.65;;;3.40;;
39050;SDS011;24805;55.852;37.644;2023-07-24T14:13:38;5.63;;;3.10;;
39050;SDS011;24805;55.852;37.644;2023-07-24T14:18:40;4.75;;;3.50;;
39050;SDS011;24805;55.852;37.644;2023-07-24T14:23:42;5.78;;;3.67;;
39050;SDS011;24805;55.852;37.644;2023-07-24T14:28:45;5.97;;;3.25;;
39050;SDS011;24805;55.852;37.644;2023-07-24T14:33:47;5.13;;;3.20;;
39050;SDS011;24805;55.852;37.644;2023-07-24T14:38:49;4.88;;;3.80;;
39050;SDS011;24805;55.852;37.644;2023-07-24T14:43:52;8.68;;;4.07;;
39050;SDS011;24805;55.852;37.644;2023-07-24T14:48:54;6.18;;;3.42;;
39050;SDS011;24805;55.852;37.644;2023-07-24T14:53:57;5.25;;;3.72;;
39050;SDS011;24805;55.852;37.644;2023-07-24T14:58:59;5.90;;;3.72;;
39050;SDS011;24805;55.852;37.644;2023-07-24T15:04:02;4.47;;;3.78;;
39050;SDS011;24805;55.852;37.644;2023-07-24T15:09:05;6.38;;;3.45;;
39050;SDS011;24805;55.852;37.644;2023-07-24T15:14:07;6.18;;;4.10;;
39050;SDS011;24805;55.852;37.644;2023-07-24T15:19:09;8.57;;;3.58;;
39050;SDS011;24805;55.852;37.644;2023-07-24T15:24:11;7.35;;;4.25;;
39050;SDS011;24805;55.852;37.644;2023-07-24T15:29:14;5.07;;;3.92;;
39050;SDS011;24805;55.852;37.644;2023-07-24T15:34:20;4.78;;;3.53;;
39050;SDS011;24805;55.852;37.644;2023-07-24T15:39:22;5.93;;;3.83;;
39050;SDS011;24805;55.852;37.644;2023-07-24T15:44:24;11.02;;;4.05;;
39050;SDS011;24805;55.852;37.644;2023-07-24T15:49:27;4.57;;;3.63;;
39050;SDS011;24805;55.852;37.644;2023-07-24T15:54:29;7.90;;;6.85;;
39050;SDS011;24805;55.852;37.644;2023-07-24T15:59:31;4.97;;;3.72;;
39050;SDS011;24805;55.852;37.644;2023-07-24T16:04:33;6.75;;;3.78;;
39050;SDS011;24805;55.852;37.644;2023-07-24T16:09:35;5.75;;;4.05;;
39050;SDS011;24805;55.852;37.644;2023-07-24T16:14:38;7.45;;;3.53;;
39050;SDS011;24805;55.852;37.644;2023-07-24T16:19:41;6.15;;;3.58;;
39050;SDS011;24805;55.852;37.644;2023-07-24T16:24:43;5.57;;;3.90;;
39050;SDS011;24805;55.852;37.644;2023-07-24T16:29:45;5.22;;;3.83;;
39050;SDS011;24805;55.852;37.644;2023-07-24T16:34:47;4.72;;;3.63;;
39050;SDS011;24805;55.852;37.644;2023-07-24T16:39:50;6.43;;;3.60;;
39050;SDS011;24805;55.852;37.644;2023-07-24T16:44:52;5.60;;;4.18;;
39050;SDS011;24805;55.852;37.644;2023-07-24T16:49:57;7.15;;;4.20;;
39050;SDS011;24805;55.852;37.644;2023-07-24T16:54:59;8.93;;;4.97;;
39050;SDS011;24805;55.852;37.644;2023-07-24T17:00:05;7.45;;;3.85;;
39050;SDS011;24805;55.852;37.644;2023-07-24T17:05:08;4.45;;;3.90;;
39050;SDS011;24805;55.852;37.644;2023-07-24T17:10:10;5.70;;;3.67;;
39050;SDS011;24805;55.852;37.644;2023-07-24T17:15:12;9.90;;;3.97;;
39050;SDS011;24805;55.852;37.644;2023-07-24T17:20:15;6.07;;;3.70;;
39050;SDS011;24805;55.852;37.644;2023-07-24T17:25:17;6.68;;;4.65;;
39050;SDS011;24805;55.852;37.644;2023-07-24T17:30:21;6.95;;;4.40;;
39050;SDS011;24805;55.852;37.644;2023-07-24T17:35:24;6.40;;;3.97;;
39050;SDS011;24805;55.852;37.644;2023-07-24T17:40:26;5.53;;;3.65;;
39050;SDS011;24805;55.852;37.644;2023-07-24T17:45:29;4.03;;;3.55;;
39050;SDS011;24805;55.852;37.644;2023-07-24T17:50:31;5.28;;;4.40;;
39050;SDS011;24805;55.852;37.644;2023-07-24T17:55:35;5.75;;;3.55;;
39050;SDS011;24805;55.852;37.644;2023-07-24T18:00:37;6.70;;;4.43;;
39050;SDS011;24805;55.852;37.644;2023-07-24T18:05:42;7.00;;;4.65;;
39050;SDS011;24805;55.852;37.644;2023-07-24T18:10:44;5.05;;;3.75;;
39050;SDS011;24805;55.852;37.644;2023-07-24T18:15:46;8.85;;;4.40;;
39050;SDS011;24805;55.852;37.644;2023-07-24T18:20:49;8.80;;;4.70;;
39050;SDS011;24805;55.852;37.644;2023-07-24T18:25:51;11.45;;;5.70;;
39050;SDS011;24805;55.852;37.644;2023-07-24T18:30:54;8.48;;;4.20;;
39050;SDS011;24805;55.852;37.644;2023-07-24T18:35:56;9.30;;;4.45;;
39050;SDS011;24805;55.852;37.644;2023-07-24T18:40:58;6.40;;;4.60;;
39050;SDS011;24805;55.852;37.644;2023-07-24T18:46:01;6.30;;;4.57;;
39050;SDS011;24805;55.852;37.644;2023-07-24T18:51:03;7.22;;;4.55;;
39050;SDS011;24805;55.852;37.644;2023-07-24T18:56:06;6.57;;;4.60;;
39050;SDS011;24805;55.852;37.644;2023-07-24T19:01:08;8.90;;;5.90;;
39050;SDS011;24805;55.852;37.644;2023-07-24T19:06:11;7.15;;;4.60;;
39050;SDS011;24805;55.852;37.644;2023-07-24T19:11:18;5.57;;;4.22;;
39050;SDS011;24805;55.852;37.644;2023-07-24T19:16:20;7.15;;;4.32;;
39050;SDS011;24805;55.852;37.644;2023-07-24T19:21:22;7.47;;;4.78;;
39050;SDS011;24805;55.852;37.644;2023-07-24T19:26:25;6.65;;;4.30;;
39050;SDS011;24805;55.852;37.644;2023-07-24T19:31:27;4.45;;;3.80;;
39050;SDS011;24805;55.852;37.644;2023-07-24T19:36:30;8.23;;;4.70;;
39050;SDS011;24805;55.852;37.644;2023-07-24T19:41:32;6.13;;;4.50;;
39050;SDS011;24805;55.852;37.644;2023-07-24T19:46:34;6.55;;;4.50;;
39050;SDS011;24805;55.852;37.644;2023-07-24T19:51:37;5.97;;;3.97;;
39050;SDS011;24805;55.852;37.644;2023-07-24T19:56:39;5.03;;;4.53;;
39050;SDS011;24805;55.852;37.644;2023-07-24T20:01:42;8.55;;;4.65;;
39050;SDS011;24805;55.852;37.644;2023-07-24T20:06:44;6.63;;;4.90;;
39050;SDS011;24805;55.852;37.644;2023-07-24T20:11:46;7.43;;;4.82;;
39050;SDS011;24805;55.852;37.644;2023-07-24T20:16:50;7.35;;;4.55;;
39050;SDS011;24805;55.852;37.644;2023-07-24T20:21:52;6.35;;;4.47;;
39050;SDS011;24805;55.852;37.644;2023-07-24T20:27:01;7.22;;;5.20;;
39050;SDS011;24805;55.852;37.644;2023-07-24T20:32:08;7.28;;;5.43;;
39050;SDS011;24805;55.852;37.644;2023-07-24T20:37:10;8.05;;;5.30;;
39050;SDS011;24805;55.852;37.644;2023-07-24T20:42:14;7.47;;;4.90;;
39050;SDS011;24805;55.852;37.644;2023-07-24T20:47:16;7.32;;;5.05;;
39050;SDS011;24805;55.852;37.644;2023-07-24T20:52:18;6.90;;;5.03;;
39050;SDS011;24805;55.852;37.644;2023-07-24T20:57:22;10.07;;;6.05;;
39050;SDS011;24805;55.852;37.644;2023-07-24T21:02:24;13.18;;;6.82;;
39050;SDS011;24805;55.852;37.644;2023-07-24T21:07:27;12.27;;;6.97;;
39050;SDS011;24805;55.852;37.644;2023-07-24T21:12:29;12.18;;;7.22;;
39050;SDS011;24805;55.852;37.644;2023-07-24T21:17:31;11.23;;;7.68;;
39050;SDS011;24805;55.852;37.644;2023-07-24T21:22:33;11.35;;;7.38;;
39050;SDS011;24805;55.852;37.644;2023-07-24T21:27:36;12.10;;;7.38;;
39050;SDS011;24805;55.852;37.644;2023-07-24T21:32:39;10.10;;;6.13;;
39050;SDS011;24805;55.852;37.644;2023-07-24T21:37:41;11.20;;;6.80;;
39050;SDS011;24805;55.852;37.644;2023-07-24T21:42:43;9.55;;;6.85;;
39050;SDS011;24805;55.852;37.644;2023-07-24T21:47:46;9.07;;;5.35;;
39050;SDS011;24805;55.852;37.644;2023-07-24T21:52:48;7.28;;;5.63;;
39050;SDS011;24805;55.852;37.644;2023-07-24T21:57:50;9.02;;;5.57;;
39050;SDS011;24805;55.852;37.644;2023-07-24T22:02:52;8.25;;;6.20;;
39050;SDS011;24805;55.852;37.644;2023-07-24T22:07:55;10.68;;;6.30;;
39050;SDS011;24805;55.852;37.644;2023-07-24T22:12:57;7.57;;;5.90;;
39050;SDS011;24805;55.852;37.644;2023-07-24T22:17:59;9.48;;;5.63;;
39050;SDS011;24805;55.852;37.644;2023-07-24T22:23:01;8.35;;;5.65;;
39050;SDS011;24805;55.852;37.644;2023-07-24T22:28:04;7.57;;;5.37;;
39050;SDS011;24805;55.852;37.644;2023-07-24T22:33:06;7.38;;;5.25;;
39050;SDS011;24805;55.852;37.644;2023-07-24T22:38:08;9.50;;;5.40;;
39050;SDS011;24805;55.852;37.644;2023-07-24T22:43:11;9.43;;;5.43;;
39050;SDS011;24805;55.852;37.644;2023-07-24T22:48:13;6.85;;;4.95;;
39050;SDS011;24805;55.852;37.644;2023-07-24T22:53:16;7.13;;;4.95;;
39050;SDS011;24805;55.852;37.644;2023-07-24T22:58:18;7.13;;;5.35;;
39050;SDS011;24805;55.852;37.644;2023-07-24T23:09:01;8.65;;;5.30;;
39050;SDS011;24805;55.852;37.644;2023-07-24T23:14:03;10.10;;;5.88;;
39050;SDS011;24805;55.852;37.644;2023-07-24T23:19:05;14.48;;;6.80;;
39050;SDS011;24805;55.852;37.644;2023-07-24T23:24:07;10.93;;;6.63;;
39050;SDS011;24805;55.852;37.644;2023-07-24T23:29:09;9.52;;;6.82;;
39050;SDS011;24805;55.852;37.644;2023-07-24T23:34:11;11.30;;;7.53;;
39050;SDS011;24805;55.852;37.644;2023-07-24T23:39:13;11.68;;;5.97;;
39050;SDS011;24805;55.852;37.644;2023-07-24T23:44:15;10.30;;;6.65;;
39050;SDS011;24805;55.852;37.644;2023-07-24T23:49:18;12.73;;;6.13;;
39050;SDS011;24805;55.852;37.644;2023-07-24T23:54:20;9.32;;;6.30;;
39050;SDS011;24805;55.852;37.644;2023-07-24T23:59:22;9.70;;;6.13;;
